sensor_id;sensor_type;location;lat;lon;timestamp;P1;durP1;ratioP1;P2;durP2;ratioP2
12312;SDS011;6220;53.580;9.758;2023-05-10T00:02:22;7.17;;;3.23;;
12312;SDS011;6220;53.580;9.758;2023-05-10T00:04:47;3.87;;;3.50;;
12312;SDS011;6220;53.580;9.758;2023-05-10T00:07:13;4.20;;;3.40;;
12312;SDS011;6220;53.580;9.758;2023-05-10T00:09:38;5.30;;;3.23;;
12312;SDS011;6220;53.580;9.758;2023-05-10T00:12:03;4.90;;;3.20;;
12312;SDS011;6220;53.580;9.758;2023-05-10T00:14:29;5.63;;;3.40;;
12312;SDS011;6220;53.580;9.758;2023-05-10T00:16:55;5.80;;;3.53;;
12312;SDS011;6220;53.580;9.758;2023-05-10T00:19:20;12.70;;;3.80;;
12312;SDS011;6220;53.580;9.758;2023-05-10T00:21:45;5.27;;;3.60;;
12312;SDS011;6220;53.580;9.758;2023-05-10T00:24:11;4.23;;;3.70;;
12312;SDS011;6220;53.580;9.758;2023-05-10T00:26:36;5.53;;;3.80;;
12312;SDS011;6220;53.580;9.758;2023-05-10T00:29:01;5.87;;;3.90;;
12312;SDS011;6220;53.580;9.758;2023-05-10T00:31:27;7.13;;;4.23;;
12312;SDS011;6220;53.580;9.758;2023-05-10T00:33:52;5.37;;;4.07;;
12312;SDS011;6220;53.580;9.758;2023-05-10T00:36:18;7.33;;;3.63;;
12312;SDS011;6220;53.580;9.758;2023-05-10T00:38:43;5.70;;;3.90;;
12312;SDS011;6220;53.580;9.758;2023-05-10T00:41:08;5.83;;;3.63;;
12312;SDS011;6220;53.580;9.758;2023-05-10T00:43:34;5.93;;;3.83;;
12312;SDS011;6220;53.580;9.758;2023-05-10T00:45:59;4.40;;;3.70;;
12312;SDS011;6220;53.580;9.758;2023-05-10T00:48:25;4.97;;;3.43;;
12312;SDS011;6220;53.580;9.758;2023-05-10T00:50:50;9.13;;;3.60;;
12312;SDS011;6220;53.580;9.758;2023-05-10T00:53:16;6.70;;;3.93;;
12312;SDS011;6220;53.580;9.758;2023-05-10T00:55:41;6.17;;;3.60;;
12312;SDS011;6220;53.580;9.758;2023-05-10T00:58:07;4.90;;;3.13;;
12312;SDS011;6220;53.580;9.758;2023-05-10T01:00:33;5.53;;;3.80;;
12312;SDS011;6220;53.580;9.758;2023-05-10T01:02:58;7.47;;;4.13;;
12312;SDS011;6220;53.580;9.758;2023-05-10T01:05:24;7.37;;;3.60;;
12312;SDS011;6220;53.580;9.758;2023-05-10T01:07:49;4.97;;;3.80;;
12312;SDS011;6220;53.580;9.758;2023-05-10T01:10:15;6.70;;;4.03;;
12312;SDS011;6220;53.580;9.758;2023-05-10T01:12:42;9.60;;;4.37;;
12312;SDS011;6220;53.580;9.758;2023-05-10T01:15:09;6.33;;;3.90;;
12312;SDS011;6220;53.580;9.758;2023-05-10T01:17:36;8.87;;;3.87;;
12312;SDS011;6220;53.580;9.758;2023-05-10T01:20:03;6.67;;;4.27;;
12312;SDS011;6220;53.580;9.758;2023-05-10T01:31:08;4.37;;;3.60;;
12312;SDS011;6220;53.580;9.758;2023-05-10T01:33:47;4.80;;;4.17;;
12312;SDS011;6220;53.580;9.758;2023-05-10T01:41:39;8.07;;;4.13;;
12312;SDS011;6220;53.580;9.758;2023-05-10T01:47:38;10.73;;;3.90;;
12312;SDS011;6220;53.580;9.758;2023-05-10T01:50:06;7.77;;;4.40;;
12312;SDS011;6220;53.580;9.758;2023-05-10T01:52:41;7.70;;;4.60;;
12312;SDS011;6220;53.580;9.758;2023-05-10T01:55:14;5.20;;;4.30;;
12312;SDS011;6220;53.580;9.758;2023-05-10T01:57:42;8.70;;;4.33;;
12312;SDS011;6220;53.580;9.758;2023-05-10T02:00:09;6.57;;;4.60;;
12312;SDS011;6220;53.580;9.758;2023-05-10T02:02:36;5.47;;;4.17;;
12312;SDS011;6220;53.580;9.758;2023-05-10T02:05:04;9.53;;;4.47;;
12312;SDS011;6220;53.580;9.758;2023-05-10T02:07:30;8.37;;;4.30;;
12312;SDS011;6220;53.580;9.758;2023-05-10T02:09:57;5.27;;;4.00;;
12312;SDS011;6220;53.580;9.758;2023-05-10T02:12:23;5.40;;;3.97;;
12312;SDS011;6220;53.580;9.758;2023-05-10T02:14:49;4.33;;;3.40;;
12312;SDS011;6220;53.580;9.758;2023-05-10T02:17:16;6.47;;;3.80;;
12312;SDS011;6220;53.580;9.758;2023-05-10T02:19:41;6.60;;;4.27;;
12312;SDS011;6220;53.580;9.758;2023-05-10T02:22:08;7.37;;;3.77;;
12312;SDS011;6220;53.580;9.758;2023-05-10T02:24:34;5.40;;;4.40;;
12312;SDS011;6220;53.580;9.758;2023-05-10T02:27:00;8.67;;;4.37;;
12312;SDS011;6220;53.580;9.758;2023-05-10T02:29:27;5.30;;;3.70;;
12312;SDS011;6220;53.580;9.758;2023-05-10T02:31:53;6.57;;;3.87;;
12312;SDS011;6220;53.580;9.758;2023-05-10T02:34:21;6.73;;;4.40;;
12312;SDS011;6220;53.580;9.758;2023-05-10T02:36:47;5.90;;;3.80;;
12312;SDS011;6220;53.580;9.758;2023-05-10T02:39:13;7.03;;;3.73;;
12312;SDS011;6220;53.580;9.758;2023-05-10T02:41:40;8.10;;;4.00;;
12312;SDS011;6220;53.580;9.758;2023-05-10T02:44:06;7.47;;;3.90;;
12312;SDS011;6220;53.580;9.758;2023-05-10T02:46:32;6.90;;;4.50;;
12312;SDS011;6220;53.580;9.758;2023-05-10T02:48:58;7.90;;;3.90;;
12312;SDS011;6220;53.580;9.758;2023-05-10T02:51:24;8.00;;;4.13;;
12312;SDS011;6220;53.580;9.758;2023-05-10T02:53:50;4.83;;;3.90;;
12312;SDS011;6220;53.580;9.758;2023-05-10T02:56:25;5.80;;;3.83;;
12312;SDS011;6220;53.580;9.758;2023-05-10T02:58:59;5.93;;;4.20;;
12312;SDS011;6220;53.580;9.758;2023-05-10T03:01:24;9.90;;;4.27;;
12312;SDS011;6220;53.580;9.758;2023-05-10T03:03:50;8.63;;;4.27;;
12312;SDS011;6220;53.580;9.758;2023-05-10T03:06:15;5.27;;;4.30;;
12312;SDS011;6220;53.580;9.758;2023-05-10T03:08:41;10.30;;;4.97;;
12312;SDS011;6220;53.580;9.758;2023-05-10T03:17:14;5.63;;;4.33;;
12312;SDS011;6220;53.580;9.758;2023-05-10T03:20:04;7.77;;;4.50;;
12312;SDS011;6220;53.580;9.758;2023-05-10T03:22:44;5.20;;;4.10;;
12312;SDS011;6220;53.580;9.758;2023-05-10T03:25:12;5.57;;;4.23;;
12312;SDS011;6220;53.580;9.758;2023-05-10T03:27:39;7.47;;;4.33;;
12312;SDS011;6220;53.580;9.758;2023-05-10T03:30:05;6.60;;;4.40;;
12312;SDS011;6220;53.580;9.758;2023-05-10T03:32:33;5.13;;;4.63;;
12312;SDS011;6220;53.580;9.758;2023-05-10T03:34:59;9.03;;;4.87;;
12312;SDS011;6220;53.580;9.758;2023-05-10T03:37:25;5.93;;;4.77;;
12312;SDS011;6220;53.580;9.758;2023-05-10T03:39:50;8.43;;;4.67;;
12312;SDS011;6220;53.580;9.758;2023-05-10T03:42:15;6.50;;;4.50;;
12312;SDS011;6220;53.580;9.758;2023-05-10T03:44:42;7.93;;;4.67;;
12312;SDS011;6220;53.580;9.758;2023-05-10T03:47:08;7.87;;;4.40;;
12312;SDS011;6220;53.580;9.758;2023-05-10T03:49:33;9.70;;;4.60;;
12312;SDS011;6220;53.580;9.758;2023-05-10T03:51:58;5.20;;;4.23;;
12312;SDS011;6220;53.580;9.758;2023-05-10T03:54:24;12.83;;;4.33;;
12312;SDS011;6220;53.580;9.758;2023-05-10T03:56:49;6.97;;;4.47;;
12312;SDS011;6220;53.580;9.758;2023-05-10T03:59:14;7.70;;;4.73;;
12312;SDS011;6220;53.580;9.758;2023-05-10T04:01:40;7.27;;;4.90;;
12312;SDS011;6220;53.580;9.758;2023-05-10T04:04:05;5.83;;;4.63;;
12312;SDS011;6220;53.580;9.758;2023-05-10T04:06:30;5.30;;;4.50;;
12312;SDS011;6220;53.580;9.758;2023-05-10T04:08:56;7.77;;;5.03;;
12312;SDS011;6220;53.580;9.758;2023-05-10T04:11:24;5.37;;;4.87;;
12312;SDS011;6220;53.580;9.758;2023-05-10T04:13:50;5.77;;;4.37;;
12312;SDS011;6220;53.580;9.758;2023-05-10T04:16:15;6.00;;;4.63;;
12312;SDS011;6220;53.580;9.758;2023-05-10T04:18:40;7.23;;;4.70;;
12312;SDS011;6220;53.580;9.758;2023-05-10T04:21:10;4.60;;;4.10;;
12312;SDS011;6220;53.580;9.758;2023-05-10T04:23:37;7.53;;;4.80;;
12312;SDS011;6220;53.580;9.758;2023-05-10T04:26:02;4.97;;;4.20;;
12312;SDS011;6220;53.580;9.758;2023-05-10T04:28:28;6.20;;;4.73;;
12312;SDS011;6220;53.580;9.758;2023-05-10T04:30:53;6.30;;;4.83;;
12312;SDS011;6220;53.580;9.758;2023-05-10T04:33:25;10.83;;;4.90;;
12312;SDS011;6220;53.580;9.758;2023-05-10T04:35:50;8.67;;;4.47;;
12312;SDS011;6220;53.580;9.758;2023-05-10T04:38:16;9.83;;;4.43;;
12312;SDS011;6220;53.580;9.758;2023-05-10T04:40:41;7.57;;;4.73;;
12312;SDS011;6220;53.580;9.758;2023-05-10T04:43:06;6.43;;;4.67;;
12312;SDS011;6220;53.580;9.758;2023-05-10T04:45:32;7.80;;;4.57;;
12312;SDS011;6220;53.580;9.758;2023-05-10T04:47:57;9.17;;;4.70;;
12312;SDS011;6220;53.580;9.758;2023-05-10T04:50:22;8.53;;;4.83;;
12312;SDS011;6220;53.580;9.758;2023-05-10T04:52:48;7.70;;;4.50;;
12312;SDS011;6220;53.580;9.758;2023-05-10T04:55:13;8.53;;;4.60;;
12312;SDS011;6220;53.580;9.758;2023-05-10T04:57:38;5.97;;;4.67;;
12312;SDS011;6220;53.580;9.758;2023-05-10T05:00:04;8.67;;;4.93;;
12312;SDS011;6220;53.580;9.758;2023-05-10T05:02:30;5.13;;;3.70;;
12312;SDS011;6220;53.580;9.758;2023-05-10T05:04:56;7.07;;;4.10;;
12312;SDS011;6220;53.580;9.758;2023-05-10T05:07:22;7.37;;;4.60;;
12312;SDS011;6220;53.580;9.758;2023-05-10T05:09:48;6.37;;;4.20;;
12312;SDS011;6220;53.580;9.758;2023-05-10T05:12:13;8.17;;;4.60;;
12312;SDS011;6220;53.580;9.758;2023-05-10T05:14:39;6.97;;;4.63;;
12312;SDS011;6220;53.580;9.758;2023-05-10T05:17:05;6.43;;;4.87;;
12312;SDS011;6220;53.580;9.758;2023-05-10T05:19:30;6.93;;;4.60;;
12312;SDS011;6220;53.580;9.758;2023-05-10T05:21:56;7.00;;;4.67;;
12312;SDS011;6220;53.580;9.758;2023-05-10T05:24:21;5.87;;;5.00;;
12312;SDS011;6220;53.580;9.758;2023-05-10T05:26:47;4.93;;;4.43;;
12312;SDS011;6220;53.580;9.758;2023-05-10T05:29:12;5.83;;;4.17;;
12312;SDS011;6220;53.580;9.758;2023-05-10T05:31:37;5.20;;;4.60;;
12312;SDS011;6220;53.580;9.758;2023-05-10T05:34:03;6.80;;;4.63;;
12312;SDS011;6220;53.580;9.758;2023-05-10T05:36:28;6.90;;;5.17;;
12312;SDS011;6220;53.580;9.758;2023-05-10T05:38:53;8.13;;;4.40;;
12312;SDS011;6220;53.580;9.758;2023-05-10T05:41:19;7.80;;;4.73;;
12312;SDS011;6220;53.580;9.758;2023-05-10T05:43:44;7.57;;;4.43;;
12312;SDS011;6220;53.580;9.758;2023-05-10T05:46:10;6.90;;;4.40;;
12312;SDS011;6220;53.580;9.758;2023-05-10T05:48:35;6.57;;;4.87;;
12312;SDS011;6220;53.580;9.758;2023-05-10T05:51:00;6.50;;;4.93;;
12312;SDS011;6220;53.580;9.758;2023-05-10T05:53:26;11.37;;;5.13;;
12312;SDS011;6220;53.580;9.758;2023-05-10T05:55:55;7.37;;;4.57;;
12312;SDS011;6220;53.580;9.758;2023-05-10T05:58:21;5.43;;;4.27;;
12312;SDS011;6220;53.580;9.758;2023-05-10T06:00:47;5.53;;;4.87;;
12312;SDS011;6220;53.580;9.758;2023-05-10T06:03:12;7.80;;;4.80;;
12312;SDS011;6220;53.580;9.758;2023-05-10T06:05:38;7.20;;;4.70;;
12312;SDS011;6220;53.580;9.758;2023-05-10T06:08:03;4.90;;;4.40;;
12312;SDS011;6220;53.580;9.758;2023-05-10T06:10:28;9.73;;;5.10;;
12312;SDS011;6220;53.580;9.758;2023-05-10T06:12:55;7.23;;;4.40;;
12312;SDS011;6220;53.580;9.758;2023-05-10T06:15:21;5.57;;;4.23;;
12312;SDS011;6220;53.580;9.758;2023-05-10T06:17:46;7.43;;;4.77;;
12312;SDS011;6220;53.580;9.758;2023-05-10T06:20:14;6.17;;;4.43;;
12312;SDS011;6220;53.580;9.758;2023-05-10T06:22:40;6.40;;;5.07;;
12312;SDS011;6220;53.580;9.758;2023-05-10T06:25:05;6.20;;;5.10;;
12312;SDS011;6220;53.580;9.758;2023-05-10T06:27:31;6.37;;;4.87;;
12312;SDS011;6220;53.580;9.758;2023-05-10T06:29:56;9.10;;;5.07;;
12312;SDS011;6220;53.580;9.758;2023-05-10T06:32:21;6.77;;;4.70;;
12312;SDS011;6220;53.580;9.758;2023-05-10T06:34:47;6.27;;;5.10;;
12312;SDS011;6220;53.580;9.758;2023-05-10T06:37:12;10.20;;;4.97;;
12312;SDS011;6220;53.580;9.758;2023-05-10T06:39:37;6.83;;;5.17;;
12312;SDS011;6220;53.580;9.758;2023-05-10T06:42:03;6.13;;;4.37;;
12312;SDS011;6220;53.580;9.758;2023-05-10T06:44:29;6.50;;;4.80;;
12312;SDS011;6220;53.580;9.758;2023-05-10T06:46:55;12.20;;;5.17;;
12312;SDS011;6220;53.580;9.758;2023-05-10T06:49:20;5.97;;;4.40;;
12312;SDS011;6220;53.580;9.758;2023-05-10T06:51:46;7.40;;;4.80;;
12312;SDS011;6220;53.580;9.758;2023-05-10T06:54:11;7.90;;;5.20;;
12312;SDS011;6220;53.580;9.758;2023-05-10T06:56:36;6.10;;;4.63;;
12312;SDS011;6220;53.580;9.758;2023-05-10T06:59:02;6.87;;;4.50;;
12312;SDS011;6220;53.580;9.758;2023-05-10T07:01:27;6.10;;;4.63;;
12312;SDS011;6220;53.580;9.758;2023-05-10T07:03:53;10.40;;;4.67;;
12312;SDS011;6220;53.580;9.758;2023-05-10T07:06:18;6.50;;;4.37;;
12312;SDS011;6220;53.580;9.758;2023-05-10T07:08:43;5.87;;;4.47;;
12312;SDS011;6220;53.580;9.758;2023-05-10T07:11:09;6.37;;;4.70;;
12312;SDS011;6220;53.580;9.758;2023-05-10T07:13:37;9.03;;;5.17;;
12312;SDS011;6220;53.580;9.758;2023-05-10T07:16:04;8.53;;;4.43;;
12312;SDS011;6220;53.580;9.758;2023-05-10T07:18:31;6.67;;;4.80;;
12312;SDS011;6220;53.580;9.758;2023-05-10T07:20:56;5.97;;;4.47;;
12312;SDS011;6220;53.580;9.758;2023-05-10T07:23:22;6.30;;;4.40;;
12312;SDS011;6220;53.580;9.758;2023-05-10T07:25:48;10.63;;;4.57;;
12312;SDS011;6220;53.580;9.758;2023-05-10T07:28:14;4.97;;;4.20;;
12312;SDS011;6220;53.580;9.758;2023-05-10T07:30:40;7.03;;;4.17;;
12312;SDS011;6220;53.580;9.758;2023-05-10T07:33:06;8.17;;;4.63;;
12312;SDS011;6220;53.580;9.758;2023-05-10T07:35:33;8.33;;;4.23;;
12312;SDS011;6220;53.580;9.758;2023-05-10T07:37:58;6.70;;;4.17;;
12312;SDS011;6220;53.580;9.758;2023-05-10T07:40:24;6.07;;;3.90;;
12312;SDS011;6220;53.580;9.758;2023-05-10T07:42:49;7.47;;;3.90;;
12312;SDS011;6220;53.580;9.758;2023-05-10T07:45:14;6.00;;;4.30;;
12312;SDS011;6220;53.580;9.758;2023-05-10T07:47:39;6.57;;;3.90;;
12312;SDS011;6220;53.580;9.758;2023-05-10T07:50:05;6.37;;;4.33;;
12312;SDS011;6220;53.580;9.758;2023-05-10T07:52:31;7.07;;;4.20;;
12312;SDS011;6220;53.580;9.758;2023-05-10T07:54:57;4.77;;;3.73;;
12312;SDS011;6220;53.580;9.758;2023-05-10T07:57:22;5.93;;;4.20;;
12312;SDS011;6220;53.580;9.758;2023-05-10T07:59:47;6.90;;;4.90;;
12312;SDS011;6220;53.580;9.758;2023-05-10T08:02:13;5.87;;;4.50;;
12312;SDS011;6220;53.580;9.758;2023-05-10T08:04:38;8.73;;;4.50;;
12312;SDS011;6220;53.580;9.758;2023-05-10T08:07:03;9.90;;;4.40;;
12312;SDS011;6220;53.580;9.758;2023-05-10T08:09:29;7.93;;;4.60;;
12312;SDS011;6220;53.580;9.758;2023-05-10T08:11:54;8.27;;;4.87;;
12312;SDS011;6220;53.580;9.758;2023-05-10T08:14:20;7.67;;;4.73;;
12312;SDS011;6220;53.580;9.758;2023-05-10T08:16:45;5.73;;;4.30;;
12312;SDS011;6220;53.580;9.758;2023-05-10T08:19:10;6.67;;;4.60;;
12312;SDS011;6220;53.580;9.758;2023-05-10T08:21:36;5.87;;;4.40;;
12312;SDS011;6220;53.580;9.758;2023-05-10T08:24:01;7.90;;;4.50;;
12312;SDS011;6220;53.580;9.758;2023-05-10T08:26:27;5.37;;;4.87;;
12312;SDS011;6220;53.580;9.758;2023-05-10T08:28:52;7.80;;;5.13;;
12312;SDS011;6220;53.580;9.758;2023-05-10T08:31:17;5.87;;;4.80;;
12312;SDS011;6220;53.580;9.758;2023-05-10T08:33:43;6.60;;;4.83;;
12312;SDS011;6220;53.580;9.758;2023-05-10T08:36:08;5.90;;;5.00;;
12312;SDS011;6220;53.580;9.758;2023-05-10T08:38:34;8.50;;;4.83;;
12312;SDS011;6220;53.580;9.758;2023-05-10T08:40:59;6.60;;;4.77;;
12312;SDS011;6220;53.580;9.758;2023-05-10T08:43:27;7.00;;;5.43;;
12312;SDS011;6220;53.580;9.758;2023-05-10T08:45:54;7.97;;;4.90;;
12312;SDS011;6220;53.580;9.758;2023-05-10T08:48:20;7.43;;;4.67;;
12312;SDS011;6220;53.580;9.758;2023-05-10T08:50:48;7.10;;;5.33;;
12312;SDS011;6220;53.580;9.758;2023-05-10T08:53:13;8.83;;;5.33;;
12312;SDS011;6220;53.580;9.758;2023-05-10T08:55:40;6.23;;;5.13;;
12312;SDS011;6220;53.580;9.758;2023-05-10T08:58:07;9.03;;;5.23;;
12312;SDS011;6220;53.580;9.758;2023-05-10T09:00:33;7.97;;;5.13;;
12312;SDS011;6220;53.580;9.758;2023-05-10T09:02:59;6.23;;;5.43;;
12312;SDS011;6220;53.580;9.758;2023-05-10T09:05:25;6.77;;;6.07;;
12312;SDS011;6220;53.580;9.758;2023-05-10T09:07:51;6.50;;;5.83;;
12312;SDS011;6220;53.580;9.758;2023-05-10T09:10:17;8.33;;;6.00;;
12312;SDS011;6220;53.580;9.758;2023-05-10T09:12:44;7.77;;;5.43;;
12312;SDS011;6220;53.580;9.758;2023-05-10T09:15:10;5.70;;;5.20;;
12312;SDS011;6220;53.580;9.758;2023-05-10T09:17:36;8.00;;;6.13;;
12312;SDS011;6220;53.580;9.758;2023-05-10T09:20:03;7.73;;;6.00;;
12312;SDS011;6220;53.580;9.758;2023-05-10T09:22:29;6.27;;;5.60;;
12312;SDS011;6220;53.580;9.758;2023-05-10T09:25:05;7.30;;;6.03;;
12312;SDS011;6220;53.580;9.758;2023-05-10T09:27:31;7.03;;;6.00;;
12312;SDS011;6220;53.580;9.758;2023-05-10T09:29:56;6.73;;;6.13;;
12312;SDS011;6220;53.580;9.758;2023-05-10T09:32:22;9.03;;;6.17;;
12312;SDS011;6220;53.580;9.758;2023-05-10T09:35:06;8.20;;;5.93;;
12312;SDS011;6220;53.580;9.758;2023-05-10T09:37:32;6.97;;;6.27;;
12312;SDS011;6220;53.580;9.758;2023-05-10T09:39:57;8.67;;;6.40;;
12312;SDS011;6220;53.580;9.758;2023-05-10T09:42:22;10.03;;;6.63;;
12312;SDS011;6220;53.580;9.758;2023-05-10T09:44:48;8.83;;;6.47;;
12312;SDS011;6220;53.580;9.758;2023-05-10T09:47:17;7.63;;;6.87;;
12312;SDS011;6220;53.580;9.758;2023-05-10T09:49:43;9.70;;;7.67;;
12312;SDS011;6220;53.580;9.758;2023-05-10T09:52:09;7.63;;;6.93;;
12312;SDS011;6220;53.580;9.758;2023-05-10T09:54:34;10.93;;;7.60;;
12312;SDS011;6220;53.580;9.758;2023-05-10T09:57:00;7.67;;;6.87;;
12312;SDS011;6220;53.580;9.758;2023-05-10T09:59:26;9.50;;;7.77;;
12312;SDS011;6220;53.580;9.758;2023-05-10T10:01:59;10.97;;;7.80;;
12312;SDS011;6220;53.580;9.758;2023-05-10T10:04:25;8.40;;;7.50;;
12312;SDS011;6220;53.580;9.758;2023-05-10T10:07:00;9.07;;;8.00;;
12312;SDS011;6220;53.580;9.758;2023-05-10T10:09:25;10.47;;;7.47;;
12312;SDS011;6220;53.580;9.758;2023-05-10T10:11:51;12.30;;;8.03;;
12312;SDS011;6220;53.580;9.758;2023-05-10T10:14:21;8.43;;;7.63;;
12312;SDS011;6220;53.580;9.758;2023-05-10T10:16:47;11.90;;;8.60;;
12312;SDS011;6220;53.580;9.758;2023-05-10T10:19:14;8.80;;;7.90;;
12312;SDS011;6220;53.580;9.758;2023-05-10T10:21:40;10.53;;;8.87;;
12312;SDS011;6220;53.580;9.758;2023-05-10T10:24:05;10.63;;;8.23;;
12312;SDS011;6220;53.580;9.758;2023-05-10T10:26:33;10.43;;;8.90;;
12312;SDS011;6220;53.580;9.758;2023-05-10T10:34:26;11.13;;;9.33;;
12312;SDS011;6220;53.580;9.758;2023-05-10T10:36:56;9.50;;;8.60;;
12312;SDS011;6220;53.580;9.758;2023-05-10T10:39:22;8.83;;;8.03;;
12312;SDS011;6220;53.580;9.758;2023-05-10T10:44:22;9.50;;;8.50;;
12312;SDS011;6220;53.580;9.758;2023-05-10T10:47:07;9.17;;;8.27;;
12312;SDS011;6220;53.580;9.758;2023-05-10T10:49:52;10.23;;;9.23;;
12312;SDS011;6220;53.580;9.758;2023-05-10T11:00:19;9.77;;;8.77;;
12312;SDS011;6220;53.580;9.758;2023-05-10T11:02:59;11.73;;;10.53;;
12312;SDS011;6220;53.580;9.758;2023-05-10T11:07:51;11.70;;;10.50;;
12312;SDS011;6220;53.580;9.758;2023-05-10T11:10:19;12.93;;;10.57;;
12312;SDS011;6220;53.580;9.758;2023-05-10T11:13:04;11.47;;;10.00;;
12312;SDS011;6220;53.580;9.758;2023-05-10T11:15:35;11.80;;;9.73;;
12312;SDS011;6220;53.580;9.758;2023-05-10T11:18:17;11.30;;;9.67;;
12312;SDS011;6220;53.580;9.758;2023-05-10T11:23:21;11.80;;;9.90;;
12312;SDS011;6220;53.580;9.758;2023-05-10T11:25:47;10.00;;;8.90;;
12312;SDS011;6220;53.580;9.758;2023-05-10T11:28:13;11.87;;;9.37;;
12312;SDS011;6220;53.580;9.758;2023-05-10T11:30:40;9.97;;;8.97;;
12312;SDS011;6220;53.580;9.758;2023-05-10T11:33:06;9.80;;;8.90;;
12312;SDS011;6220;53.580;9.758;2023-05-10T11:35:38;12.47;;;9.97;;
12312;SDS011;6220;53.580;9.758;2023-05-10T11:38:05;11.83;;;9.77;;
12312;SDS011;6220;53.580;9.758;2023-05-10T11:40:31;10.20;;;9.20;;
12312;SDS011;6220;53.580;9.758;2023-05-10T11:42:56;9.33;;;8.43;;
12312;SDS011;6220;53.580;9.758;2023-05-10T11:45:23;10.07;;;9.07;;
12312;SDS011;6220;53.580;9.758;2023-05-10T11:47:49;10.53;;;9.00;;
12312;SDS011;6220;53.580;9.758;2023-05-10T11:50:14;10.10;;;9.10;;
12312;SDS011;6220;53.580;9.758;2023-05-10T11:52:40;10.03;;;9.03;;
12312;SDS011;6220;53.580;9.758;2023-05-10T11:55:05;10.07;;;9.07;;
12312;SDS011;6220;53.580;9.758;2023-05-10T11:57:31;10.83;;;9.83;;
12312;SDS011;6220;53.580;9.758;2023-05-10T11:59:56;11.00;;;9.50;;
12312;SDS011;6220;53.580;9.758;2023-05-10T12:02:22;10.20;;;9.20;;
12312;SDS011;6220;53.580;9.758;2023-05-10T12:04:47;9.73;;;8.57;;
12312;SDS011;6220;53.580;9.758;2023-05-10T12:07:13;10.40;;;9.40;;
12312;SDS011;6220;53.580;9.758;2023-05-10T12:10:01;12.23;;;9.53;;
12312;SDS011;6220;53.580;9.758;2023-05-10T12:12:37;10.23;;;8.70;;
12312;SDS011;6220;53.580;9.758;2023-05-10T12:15:10;10.27;;;9.20;;
12312;SDS011;6220;53.580;9.758;2023-05-10T12:17:45;10.17;;;9.07;;
12312;SDS011;6220;53.580;9.758;2023-05-10T12:20:15;9.93;;;9.03;;
12312;SDS011;6220;53.580;9.758;2023-05-10T12:22:45;9.97;;;8.97;;
12312;SDS011;6220;53.580;9.758;2023-05-10T12:25:21;11.33;;;10.10;;
12312;SDS011;6220;53.580;9.758;2023-05-10T12:27:48;8.83;;;7.90;;
12312;SDS011;6220;53.580;9.758;2023-05-10T12:30:18;9.90;;;8.50;;
12312;SDS011;6220;53.580;9.758;2023-05-10T12:32:47;9.87;;;8.40;;
12312;SDS011;6220;53.580;9.758;2023-05-10T12:35:12;8.57;;;7.37;;
12312;SDS011;6220;53.580;9.758;2023-05-10T12:37:37;8.33;;;7.20;;
12312;SDS011;6220;53.580;9.758;2023-05-10T12:40:06;7.80;;;7.00;;
12312;SDS011;6220;53.580;9.758;2023-05-10T12:42:35;11.10;;;7.50;;
12312;SDS011;6220;53.580;9.758;2023-05-10T12:45:01;7.33;;;6.73;;
12312;SDS011;6220;53.580;9.758;2023-05-10T12:47:27;8.23;;;6.67;;
12312;SDS011;6220;53.580;9.758;2023-05-10T12:49:53;8.03;;;7.10;;
12312;SDS011;6220;53.580;9.758;2023-05-10T12:52:18;7.10;;;6.40;;
12312;SDS011;6220;53.580;9.758;2023-05-10T12:54:43;6.23;;;5.50;;
12312;SDS011;6220;53.580;9.758;2023-05-10T12:57:09;6.20;;;5.60;;
12312;SDS011;6220;53.580;9.758;2023-05-10T12:59:35;5.87;;;5.27;;
12312;SDS011;6220;53.580;9.758;2023-05-10T13:02:00;6.47;;;5.87;;
12312;SDS011;6220;53.580;9.758;2023-05-10T13:04:25;6.97;;;6.30;;
12312;SDS011;6220;53.580;9.758;2023-05-10T13:06:51;8.40;;;7.00;;
12312;SDS011;6220;53.580;9.758;2023-05-10T13:09:16;7.60;;;6.90;;
12312;SDS011;6220;53.580;9.758;2023-05-10T13:11:41;7.43;;;6.73;;
12312;SDS011;6220;53.580;9.758;2023-05-10T13:14:07;7.53;;;6.83;;
12312;SDS011;6220;53.580;9.758;2023-05-10T13:16:32;7.40;;;6.70;;
12312;SDS011;6220;53.580;9.758;2023-05-10T13:18:57;7.47;;;6.77;;
12312;SDS011;6220;53.580;9.758;2023-05-10T13:21:23;7.37;;;6.53;;
12312;SDS011;6220;53.580;9.758;2023-05-10T13:23:49;7.90;;;6.70;;
12312;SDS011;6220;53.580;9.758;2023-05-10T13:26:15;7.47;;;6.70;;
12312;SDS011;6220;53.580;9.758;2023-05-10T13:28:40;7.70;;;7.00;;
12312;SDS011;6220;53.580;9.758;2023-05-10T13:31:06;7.90;;;7.20;;
12312;SDS011;6220;53.580;9.758;2023-05-10T13:33:31;8.13;;;7.33;;
12312;SDS011;6220;53.580;9.758;2023-05-10T13:35:56;7.50;;;6.80;;
12312;SDS011;6220;53.580;9.758;2023-05-10T13:38:22;7.27;;;6.57;;
12312;SDS011;6220;53.580;9.758;2023-05-10T13:40:47;8.07;;;7.27;;
12312;SDS011;6220;53.580;9.758;2023-05-10T13:43:13;7.53;;;6.37;;
12312;SDS011;6220;53.580;9.758;2023-05-10T13:45:38;7.43;;;6.73;;
12312;SDS011;6220;53.580;9.758;2023-05-10T13:48:03;7.83;;;6.83;;
12312;SDS011;6220;53.580;9.758;2023-05-10T13:50:29;7.53;;;6.80;;
12312;SDS011;6220;53.580;9.758;2023-05-10T13:52:54;7.87;;;6.93;;
12312;SDS011;6220;53.580;9.758;2023-05-10T13:55:20;7.53;;;6.93;;
12312;SDS011;6220;53.580;9.758;2023-05-10T13:57:45;7.83;;;7.07;;
12312;SDS011;6220;53.580;9.758;2023-05-10T14:00:11;7.77;;;7.07;;
12312;SDS011;6220;53.580;9.758;2023-05-10T14:02:37;8.50;;;7.70;;
12312;SDS011;6220;53.580;9.758;2023-05-10T14:05:02;9.20;;;8.30;;
12312;SDS011;6220;53.580;9.758;2023-05-10T14:07:28;15.87;;;8.07;;
12312;SDS011;6220;53.580;9.758;2023-05-10T14:09:53;9.17;;;8.27;;
12312;SDS011;6220;53.580;9.758;2023-05-10T14:12:18;9.07;;;7.50;;
12312;SDS011;6220;53.580;9.758;2023-05-10T14:14:43;8.50;;;7.60;;
12312;SDS011;6220;53.580;9.758;2023-05-10T14:17:10;9.10;;;8.30;;
12312;SDS011;6220;53.580;9.758;2023-05-10T14:19:35;8.20;;;7.50;;
12312;SDS011;6220;53.580;9.758;2023-05-10T14:22:00;8.60;;;7.80;;
12312;SDS011;6220;53.580;9.758;2023-05-10T14:24:26;7.97;;;7.17;;
12312;SDS011;6220;53.580;9.758;2023-05-10T14:26:51;8.80;;;7.90;;
12312;SDS011;6220;53.580;9.758;2023-05-10T14:29:18;8.80;;;7.90;;
12312;SDS011;6220;53.580;9.758;2023-05-10T14:31:44;7.20;;;6.50;;
12312;SDS011;6220;53.580;9.758;2023-05-10T14:34:10;8.57;;;7.43;;
12312;SDS011;6220;53.580;9.758;2023-05-10T14:36:35;7.67;;;6.97;;
12312;SDS011;6220;53.580;9.758;2023-05-10T14:39:00;9.37;;;7.53;;
12312;SDS011;6220;53.580;9.758;2023-05-10T14:41:26;8.70;;;7.27;;
12312;SDS011;6220;53.580;9.758;2023-05-10T14:43:51;8.20;;;7.47;;
12312;SDS011;6220;53.580;9.758;2023-05-10T14:46:17;8.13;;;7.33;;
12312;SDS011;6220;53.580;9.758;2023-05-10T14:48:43;7.30;;;6.60;;
12312;SDS011;6220;53.580;9.758;2023-05-10T14:51:08;7.70;;;6.70;;
12312;SDS011;6220;53.580;9.758;2023-05-10T14:53:33;7.87;;;6.67;;
12312;SDS011;6220;53.580;9.758;2023-05-10T14:55:59;6.97;;;6.37;;
12312;SDS011;6220;53.580;9.758;2023-05-10T14:58:26;7.97;;;6.63;;
12312;SDS011;6220;53.580;9.758;2023-05-10T15:00:51;7.40;;;6.40;;
12312;SDS011;6220;53.580;9.758;2023-05-10T15:03:17;7.50;;;6.80;;
12312;SDS011;6220;53.580;9.758;2023-05-10T15:05:42;7.07;;;6.37;;
12312;SDS011;6220;53.580;9.758;2023-05-10T15:08:07;7.00;;;5.90;;
12312;SDS011;6220;53.580;9.758;2023-05-10T15:10:34;6.77;;;6.17;;
12312;SDS011;6220;53.580;9.758;2023-05-10T15:12:59;7.10;;;6.40;;
12312;SDS011;6220;53.580;9.758;2023-05-10T15:15:25;6.53;;;6.03;;
12312;SDS011;6220;53.580;9.758;2023-05-10T15:17:50;7.17;;;6.03;;
12312;SDS011;6220;53.580;9.758;2023-05-10T15:20:16;6.60;;;6.00;;
12312;SDS011;6220;53.580;9.758;2023-05-10T15:22:41;6.60;;;6.00;;
12312;SDS011;6220;53.580;9.758;2023-05-10T15:25:07;7.37;;;6.63;;
12312;SDS011;6220;53.580;9.758;2023-05-10T15:27:32;6.67;;;6.07;;
12312;SDS011;6220;53.580;9.758;2023-05-10T15:29:58;6.27;;;5.77;;
12312;SDS011;6220;53.580;9.758;2023-05-10T15:32:24;7.47;;;6.53;;
12312;SDS011;6220;53.580;9.758;2023-05-10T15:34:50;7.70;;;6.90;;
12312;SDS011;6220;53.580;9.758;2023-05-10T15:37:15;7.40;;;6.60;;
12312;SDS011;6220;53.580;9.758;2023-05-10T15:39:40;8.53;;;7.77;;
12312;SDS011;6220;53.580;9.758;2023-05-10T15:42:06;9.40;;;8.50;;